sensor_id;sensor_type;location;lat;lon;timestamp;P1;durP1;ratioP1;P2;durP2;ratioP2
3779;SDS011;1905;52.482;9.802;2023-03-23T00:00:47;1.80;;;1.57;;
3779;SDS011;1905;52.482;9.802;2023-03-23T00:03:14;3.33;;;1.60;;
3779;SDS011;1905;52.482;9.802;2023-03-23T00:05:40;2.60;;;1.77;;
3779;SDS011;1905;52.482;9.802;2023-03-23T00:08:07;3.00;;;2.53;;
3779;SDS011;1905;52.482;9.802;2023-03-23T00:10:37;2.70;;;1.73;;
3779;SDS011;1905;52.482;9.802;2023-03-23T00:13:04;2.13;;;1.77;;
3779;SDS011;1905;52.482;9.802;2023-03-23T00:15:31;4.97;;;2.07;;
3779;SDS011;1905;52.482;9.802;2023-03-23T00:18:00;3.07;;;1.90;;
3779;SDS011;1905;52.482;9.802;2023-03-23T00:20:30;2.07;;;1.90;;
3779;SDS011;1905;52.482;9.802;2023-03-23T00:23:05;4.13;;;1.90;;
3779;SDS011;1905;52.482;9.802;2023-03-23T00:25:32;2.47;;;1.80;;
3779;SDS011;1905;52.482;9.802;2023-03-23T00:28:02;2.80;;;1.60;;
3779;SDS011;1905;52.482;9.802;2023-03-23T00:30:28;2.50;;;2.10;;
3779;SDS011;1905;52.482;9.802;2023-03-23T00:32:55;3.13;;;1.90;;
3779;SDS011;1905;52.482;9.802;2023-03-23T00:35:24;3.07;;;2.20;;
3779;SDS011;1905;52.482;9.802;2023-03-23T00:37:52;5.03;;;2.37;;
3779;SDS011;1905;52.482;9.802;2023-03-23T00:40:20;3.13;;;2.27;;
3779;SDS011;1905;52.482;9.802;2023-03-23T00:42:47;3.00;;;2.67;;
3779;SDS011;1905;52.482;9.802;2023-03-23T00:45:13;3.73;;;3.43;;
3779;SDS011;1905;52.482;9.802;2023-03-23T00:47:40;4.03;;;2.10;;
3779;SDS011;1905;52.482;9.802;2023-03-23T00:50:11;2.73;;;2.47;;
3779;SDS011;1905;52.482;9.802;2023-03-23T00:52:40;2.50;;;2.00;;
3779;SDS011;1905;52.482;9.802;2023-03-23T00:55:07;3.27;;;2.37;;
3779;SDS011;1905;52.482;9.802;2023-03-23T00:57:34;2.17;;;2.03;;
3779;SDS011;1905;52.482;9.802;2023-03-23T01:00:01;2.90;;;2.00;;
3779;SDS011;1905;52.482;9.802;2023-03-23T01:02:30;2.90;;;2.60;;
3779;SDS011;1905;52.482;9.802;2023-03-23T01:04:57;2.77;;;2.50;;
3779;SDS011;1905;52.482;9.802;2023-03-23T01:07:23;5.10;;;2.27;;
3779;SDS011;1905;52.482;9.802;2023-03-23T01:09:51;2.67;;;1.90;;
3779;SDS011;1905;52.482;9.802;2023-03-23T01:12:18;3.53;;;2.00;;
3779;SDS011;1905;52.482;9.802;2023-03-23T01:14:45;3.47;;;3.13;;
3779;SDS011;1905;52.482;9.802;2023-03-23T01:17:13;3.70;;;2.40;;
3779;SDS011;1905;52.482;9.802;2023-03-23T01:19:39;2.27;;;2.03;;
3779;SDS011;1905;52.482;9.802;2023-03-23T01:22:07;2.23;;;2.03;;
3779;SDS011;1905;52.482;9.802;2023-03-23T01:24:33;10.50;;;2.40;;
3779;SDS011;1905;52.482;9.802;2023-03-23T01:27:01;3.57;;;2.33;;
3779;SDS011;1905;52.482;9.802;2023-03-23T01:29:31;2.60;;;2.40;;
3779;SDS011;1905;52.482;9.802;2023-03-23T01:31:58;3.23;;;2.53;;
3779;SDS011;1905;52.482;9.802;2023-03-23T01:34:25;3.67;;;2.40;;
3779;SDS011;1905;52.482;9.802;2023-03-23T01:36:51;5.17;;;2.47;;
3779;SDS011;1905;52.482;9.802;2023-03-23T01:39:18;3.90;;;2.00;;
3779;SDS011;1905;52.482;9.802;2023-03-23T01:41:45;1.50;;;1.40;;
3779;SDS011;1905;52.482;9.802;2023-03-23T01:47:23;4.63;;;2.43;;
3779;SDS011;1905;52.482;9.802;2023-03-23T01:49:52;2.77;;;2.00;;
3779;SDS011;1905;52.482;9.802;2023-03-23T01:52:19;3.47;;;2.37;;
3779;SDS011;1905;52.482;9.802;2023-03-23T01:54:52;3.87;;;2.80;;
3779;SDS011;1905;52.482;9.802;2023-03-23T01:57:22;2.33;;;2.23;;
3779;SDS011;1905;52.482;9.802;2023-03-23T01:59:53;3.03;;;2.50;;
3779;SDS011;1905;52.482;9.802;2023-03-23T02:02:26;5.00;;;2.30;;
3779;SDS011;1905;52.482;9.802;2023-03-23T02:04:57;2.97;;;2.70;;
3779;SDS011;1905;52.482;9.802;2023-03-23T02:07:30;2.50;;;2.10;;
3779;SDS011;1905;52.482;9.802;2023-03-23T02:09:59;2.20;;;2.00;;
3779;SDS011;1905;52.482;9.802;2023-03-23T02:12:30;2.70;;;2.50;;
3779;SDS011;1905;52.482;9.802;2023-03-23T02:14:56;2.40;;;2.20;;
3779;SDS011;1905;52.482;9.802;2023-03-23T02:17:24;5.63;;;2.67;;
3779;SDS011;1905;52.482;9.802;2023-03-23T02:20:01;1.90;;;1.80;;
3779;SDS011;1905;52.482;9.802;2023-03-23T02:22:51;2.80;;;2.20;;
3779;SDS011;1905;52.482;9.802;2023-03-23T02:25:32;2.33;;;2.13;;
3779;SDS011;1905;52.482;9.802;2023-03-23T02:28:31;2.57;;;2.37;;
3779;SDS011;1905;52.482;9.802;2023-03-23T02:31:16;2.57;;;1.73;;
3779;SDS011;1905;52.482;9.802;2023-03-23T02:33:57;2.50;;;2.30;;
3779;SDS011;1905;52.482;9.802;2023-03-23T02:36:29;2.60;;;2.40;;
3779;SDS011;1905;52.482;9.802;2023-03-23T02:39:02;4.00;;;2.63;;
3779;SDS011;1905;52.482;9.802;2023-03-23T02:41:34;2.10;;;1.90;;
3779;SDS011;1905;52.482;9.802;2023-03-23T02:44:05;2.53;;;2.33;;
3779;SDS011;1905;52.482;9.802;2023-03-23T02:46:35;2.40;;;2.20;;
3779;SDS011;1905;52.482;9.802;2023-03-23T02:49:04;2.60;;;2.30;;
3779;SDS011;1905;52.482;9.802;2023-03-23T02:51:34;3.77;;;2.33;;
3779;SDS011;1905;52.482;9.802;2023-03-23T02:54:03;2.37;;;1.90;;
3779;SDS011;1905;52.482;9.802;2023-03-23T02:56:31;2.47;;;2.27;;
3779;SDS011;1905;52.482;9.802;2023-03-23T02:59:02;4.97;;;2.40;;
3779;SDS011;1905;52.482;9.802;2023-03-23T03:04:18;3.57;;;2.10;;
3779;SDS011;1905;52.482;9.802;2023-03-23T03:06:49;2.47;;;2.27;;
3779;SDS011;1905;52.482;9.802;2023-03-23T03:09:33;2.90;;;2.40;;
3779;SDS011;1905;52.482;9.802;2023-03-23T03:12:08;3.80;;;2.20;;
3779;SDS011;1905;52.482;9.802;2023-03-23T03:14:41;2.40;;;2.20;;
3779;SDS011;1905;52.482;9.802;2023-03-23T03:17:17;1.90;;;1.80;;
3779;SDS011;1905;52.482;9.802;2023-03-23T03:19:51;2.10;;;2.00;;
3779;SDS011;1905;52.482;9.802;2023-03-23T03:22:21;7.80;;;2.40;;
3779;SDS011;1905;52.482;9.802;2023-03-23T03:24:54;2.97;;;2.40;;
3779;SDS011;1905;52.482;9.802;2023-03-23T03:27:23;2.60;;;2.40;;
3779;SDS011;1905;52.482;9.802;2023-03-23T03:30:03;2.33;;;2.10;;
3779;SDS011;1905;52.482;9.802;2023-03-23T03:32:36;3.10;;;2.47;;
3779;SDS011;1905;52.482;9.802;2023-03-23T03:35:08;3.00;;;2.70;;
3779;SDS011;1905;52.482;9.802;2023-03-23T03:37:38;2.93;;;2.53;;
3779;SDS011;1905;52.482;9.802;2023-03-23T03:40:07;3.27;;;2.30;;
3779;SDS011;1905;52.482;9.802;2023-03-23T03:42:36;2.77;;;2.57;;
3779;SDS011;1905;52.482;9.802;2023-03-23T03:45:03;3.00;;;2.20;;
3779;SDS011;1905;52.482;9.802;2023-03-23T03:47:30;3.73;;;2.93;;
3779;SDS011;1905;52.482;9.802;2023-03-23T03:49:57;2.90;;;2.30;;
3779;SDS011;1905;52.482;9.802;2023-03-23T03:52:25;2.87;;;2.50;;
3779;SDS011;1905;52.482;9.802;2023-03-23T03:54:53;2.47;;;2.23;;
3779;SDS011;1905;52.482;9.802;2023-03-23T03:57:21;6.83;;;2.77;;
3779;SDS011;1905;52.482;9.802;2023-03-23T03:59:56;2.50;;;2.30;;
3779;SDS011;1905;52.482;9.802;2023-03-23T04:02:43;2.70;;;2.30;;
3779;SDS011;1905;52.482;9.802;2023-03-23T04:05:13;2.30;;;2.20;;
3779;SDS011;1905;52.482;9.802;2023-03-23T04:07:42;3.60;;;2.57;;
3779;SDS011;1905;52.482;9.802;2023-03-23T04:10:09;2.23;;;2.03;;
3779;SDS011;1905;52.482;9.802;2023-03-23T04:12:40;3.30;;;2.77;;
3779;SDS011;1905;52.482;9.802;2023-03-23T04:15:29;3.37;;;2.70;;
3779;SDS011;1905;52.482;9.802;2023-03-23T04:17:55;2.43;;;2.23;;
3779;SDS011;1905;52.482;9.802;2023-03-23T04:20:25;2.20;;;2.00;;
3779;SDS011;1905;52.482;9.802;2023-03-23T04:22:54;2.03;;;1.73;;
3779;SDS011;1905;52.482;9.802;2023-03-23T04:25:23;2.80;;;2.10;;
3779;SDS011;1905;52.482;9.802;2023-03-23T04:27:51;2.43;;;2.10;;
3779;SDS011;1905;52.482;9.802;2023-03-23T04:30:23;2.13;;;2.03;;
3779;SDS011;1905;52.482;9.802;2023-03-23T04:33:06;1.90;;;1.80;;
3779;SDS011;1905;52.482;9.802;2023-03-23T04:35:33;3.30;;;2.70;;
3779;SDS011;1905;52.482;9.802;2023-03-23T04:38:14;2.60;;;1.80;;
3779;SDS011;1905;52.482;9.802;2023-03-23T04:40:49;2.00;;;1.83;;
3779;SDS011;1905;52.482;9.802;2023-03-23T04:43:42;2.07;;;1.73;;
3779;SDS011;1905;52.482;9.802;2023-03-23T04:46:21;2.47;;;2.27;;
3779;SDS011;1905;52.482;9.802;2023-03-23T04:48:50;3.33;;;2.20;;
3779;SDS011;1905;52.482;9.802;2023-03-23T04:51:21;1.67;;;1.57;;
3779;SDS011;1905;52.482;9.802;2023-03-23T04:53:52;3.30;;;2.03;;
3779;SDS011;1905;52.482;9.802;2023-03-23T04:56:19;2.30;;;2.00;;
3779;SDS011;1905;52.482;9.802;2023-03-23T04:58:46;2.30;;;2.00;;
3779;SDS011;1905;52.482;9.802;2023-03-23T05:01:33;2.60;;;1.60;;
3779;SDS011;1905;52.482;9.802;2023-03-23T05:04:13;2.93;;;1.73;;
3779;SDS011;1905;52.482;9.802;2023-03-23T05:06:43;3.53;;;3.20;;
3779;SDS011;1905;52.482;9.802;2023-03-23T05:09:17;2.20;;;1.90;;
3779;SDS011;1905;52.482;9.802;2023-03-23T05:11:45;4.13;;;2.03;;
3779;SDS011;1905;52.482;9.802;2023-03-23T05:14:12;2.23;;;2.03;;
3779;SDS011;1905;52.482;9.802;2023-03-23T05:16:41;2.37;;;1.97;;
3779;SDS011;1905;52.482;9.802;2023-03-23T05:19:12;2.30;;;2.10;;
3779;SDS011;1905;52.482;9.802;2023-03-23T05:21:39;2.53;;;1.70;;
3779;SDS011;1905;52.482;9.802;2023-03-23T05:24:06;2.47;;;1.80;;
3779;SDS011;1905;52.482;9.802;2023-03-23T05:26:34;3.40;;;1.93;;
3779;SDS011;1905;52.482;9.802;2023-03-23T05:29:12;2.47;;;1.57;;
3779;SDS011;1905;52.482;9.802;2023-03-23T05:31:45;2.40;;;1.73;;
3779;SDS011;1905;52.482;9.802;2023-03-23T05:34:13;2.23;;;2.00;;
3779;SDS011;1905;52.482;9.802;2023-03-23T05:36:47;2.57;;;1.97;;
3779;SDS011;1905;52.482;9.802;2023-03-23T05:39:32;1.60;;;1.50;;
3779;SDS011;1905;52.482;9.802;2023-03-23T05:42:14;2.77;;;2.10;;
3779;SDS011;1905;52.482;9.802;2023-03-23T05:44:50;1.83;;;1.63;;
3779;SDS011;1905;52.482;9.802;2023-03-23T05:47:16;2.10;;;1.90;;
3779;SDS011;1905;52.482;9.802;2023-03-23T05:49:50;2.20;;;2.00;;
3779;SDS011;1905;52.482;9.802;2023-03-23T05:52:18;2.20;;;1.80;;
3779;SDS011;1905;52.482;9.802;2023-03-23T05:54:46;2.50;;;1.97;;
3779;SDS011;1905;52.482;9.802;2023-03-23T05:57:14;3.60;;;2.10;;
3779;SDS011;1905;52.482;9.802;2023-03-23T05:59:53;3.17;;;2.10;;
3779;SDS011;1905;52.482;9.802;2023-03-23T06:02:22;4.13;;;2.07;;
3779;SDS011;1905;52.482;9.802;2023-03-23T06:04:51;3.23;;;2.03;;
3779;SDS011;1905;52.482;9.802;2023-03-23T06:07:26;2.10;;;1.70;;
3779;SDS011;1905;52.482;9.802;2023-03-23T06:09:58;2.33;;;1.93;;
3779;SDS011;1905;52.482;9.802;2023-03-23T06:12:26;5.57;;;1.87;;
3779;SDS011;1905;52.482;9.802;2023-03-23T06:15:22;1.73;;;1.63;;
3779;SDS011;1905;52.482;9.802;2023-03-23T06:18:08;2.30;;;1.70;;
3779;SDS011;1905;52.482;9.802;2023-03-23T06:20:44;5.13;;;2.73;;
3779;SDS011;1905;52.482;9.802;2023-03-23T06:23:26;1.67;;;1.43;;
3779;SDS011;1905;52.482;9.802;2023-03-23T06:25:54;2.43;;;2.03;;
3779;SDS011;1905;52.482;9.802;2023-03-23T06:28:26;3.10;;;1.90;;
3779;SDS011;1905;52.482;9.802;2023-03-23T06:30:53;1.67;;;1.57;;
3779;SDS011;1905;52.482;9.802;2023-03-23T06:33:20;1.30;;;1.13;;
3779;SDS011;1905;52.482;9.802;2023-03-23T06:36:16;2.50;;;1.63;;
3779;SDS011;1905;52.482;9.802;2023-03-23T06:38:49;2.93;;;2.00;;
3779;SDS011;1905;52.482;9.802;2023-03-23T06:41:21;1.60;;;1.50;;
3779;SDS011;1905;52.482;9.802;2023-03-23T06:43:50;2.73;;;1.90;;
3779;SDS011;1905;52.482;9.802;2023-03-23T06:46:22;1.67;;;1.40;;
3779;SDS011;1905;52.482;9.802;2023-03-23T06:48:52;1.77;;;1.27;;
3779;SDS011;1905;52.482;9.802;2023-03-23T06:51:26;1.53;;;1.43;;
3779;SDS011;1905;52.482;9.802;2023-03-23T06:53:54;2.13;;;1.07;;
3779;SDS011;1905;52.482;9.802;2023-03-23T06:56:22;1.60;;;1.50;;
3779;SDS011;1905;52.482;9.802;2023-03-23T06:58:50;1.60;;;1.50;;
3779;SDS011;1905;52.482;9.802;2023-03-23T07:01:17;1.50;;;1.37;;
3779;SDS011;1905;52.482;9.802;2023-03-23T07:03:52;2.90;;;1.50;;
3779;SDS011;1905;52.482;9.802;2023-03-23T07:06:28;1.80;;;1.70;;
3779;SDS011;1905;52.482;9.802;2023-03-23T07:08:58;2.00;;;1.43;;
3779;SDS011;1905;52.482;9.802;2023-03-23T07:11:27;1.60;;;1.50;;
3779;SDS011;1905;52.482;9.802;2023-03-23T07:13:58;1.50;;;1.27;;
3779;SDS011;1905;52.482;9.802;2023-03-23T07:16:24;3.83;;;1.40;;
3779;SDS011;1905;52.482;9.802;2023-03-23T07:18:52;2.30;;;1.30;;
3779;SDS011;1905;52.482;9.802;2023-03-23T07:21:22;1.40;;;1.30;;
3779;SDS011;1905;52.482;9.802;2023-03-23T07:23:49;1.80;;;1.50;;
3779;SDS011;1905;52.482;9.802;2023-03-23T07:26:31;1.70;;;1.60;;
3779;SDS011;1905;52.482;9.802;2023-03-23T07:28:59;3.60;;;1.80;;
3779;SDS011;1905;52.482;9.802;2023-03-23T07:31:36;1.80;;;1.57;;
3779;SDS011;1905;52.482;9.802;2023-03-23T07:34:03;1.57;;;1.47;;
3779;SDS011;1905;52.482;9.802;2023-03-23T07:36:41;2.40;;;1.83;;
3779;SDS011;1905;52.482;9.802;2023-03-23T07:39:09;2.20;;;1.60;;
3779;SDS011;1905;52.482;9.802;2023-03-23T07:41:35;1.63;;;1.50;;
3779;SDS011;1905;52.482;9.802;2023-03-23T07:44:14;2.37;;;1.70;;
3779;SDS011;1905;52.482;9.802;2023-03-23T07:46:42;1.93;;;1.63;;
3779;SDS011;1905;52.482;9.802;2023-03-23T07:49:12;3.23;;;2.13;;
3779;SDS011;1905;52.482;9.802;2023-03-23T07:51:44;2.00;;;1.80;;
3779;SDS011;1905;52.482;9.802;2023-03-23T07:54:13;6.30;;;1.70;;
3779;SDS011;1905;52.482;9.802;2023-03-23T07:57:01;4.33;;;1.93;;
3779;SDS011;1905;52.482;9.802;2023-03-23T07:59:36;3.30;;;1.73;;
3779;SDS011;1905;52.482;9.802;2023-03-23T08:02:03;3.53;;;1.80;;
3779;SDS011;1905;52.482;9.802;2023-03-23T08:04:48;1.57;;;1.47;;
3779;SDS011;1905;52.482;9.802;2023-03-23T08:07:44;4.70;;;1.70;;
3779;SDS011;1905;52.482;9.802;2023-03-23T08:10:32;3.17;;;1.50;;
3779;SDS011;1905;52.482;9.802;2023-03-23T08:13:16;1.97;;;1.80;;
3779;SDS011;1905;52.482;9.802;2023-03-23T08:16:12;2.60;;;2.00;;
3779;SDS011;1905;52.482;9.802;2023-03-23T08:18:53;1.83;;;1.70;;
3779;SDS011;1905;52.482;9.802;2023-03-23T08:21:42;4.50;;;2.33;;
3779;SDS011;1905;52.482;9.802;2023-03-23T08:24:24;2.33;;;2.13;;
3779;SDS011;1905;52.482;9.802;2023-03-23T08:27:11;2.07;;;1.87;;
3779;SDS011;1905;52.482;9.802;2023-03-23T08:30:08;4.03;;;2.10;;
3779;SDS011;1905;52.482;9.802;2023-03-23T08:32:57;3.20;;;1.70;;
3779;SDS011;1905;52.482;9.802;2023-03-23T08:35:40;1.70;;;1.60;;
3779;SDS011;1905;52.482;9.802;2023-03-23T08:38:31;2.20;;;1.77;;
3779;SDS011;1905;52.482;9.802;2023-03-23T08:41:11;2.27;;;2.07;;
3779;SDS011;1905;52.482;9.802;2023-03-23T08:43:54;2.87;;;2.40;;
3779;SDS011;1905;52.482;9.802;2023-03-23T08:46:37;4.17;;;2.97;;
3779;SDS011;1905;52.482;9.802;2023-03-23T08:49:16;3.17;;;2.33;;
3779;SDS011;1905;52.482;9.802;2023-03-23T08:52:05;7.10;;;2.20;;
3779;SDS011;1905;52.482;9.802;2023-03-23T08:54:53;2.20;;;2.00;;
3779;SDS011;1905;52.482;9.802;2023-03-23T08:57:37;3.93;;;2.40;;
3779;SDS011;1905;52.482;9.802;2023-03-23T09:00:16;3.53;;;1.87;;
3779;SDS011;1905;52.482;9.802;2023-03-23T09:02:55;2.37;;;1.80;;
3779;SDS011;1905;52.482;9.802;2023-03-23T09:05:30;2.40;;;1.73;;
3779;SDS011;1905;52.482;9.802;2023-03-23T09:08:15;4.40;;;2.50;;
3779;SDS011;1905;52.482;9.802;2023-03-23T09:10:41;3.57;;;2.20;;
3779;SDS011;1905;52.482;9.802;2023-03-23T09:13:08;4.40;;;2.67;;
3779;SDS011;1905;52.482;9.802;2023-03-23T09:15:34;6.77;;;2.17;;
3779;SDS011;1905;52.482;9.802;2023-03-23T09:18:01;5.57;;;2.37;;
3779;SDS011;1905;52.482;9.802;2023-03-23T09:20:28;2.67;;;1.50;;
3779;SDS011;1905;52.482;9.802;2023-03-23T09:22:57;7.63;;;2.20;;
3779;SDS011;1905;52.482;9.802;2023-03-23T09:25:24;2.40;;;1.90;;
3779;SDS011;1905;52.482;9.802;2023-03-23T09:27:52;4.20;;;2.60;;
3779;SDS011;1905;52.482;9.802;2023-03-23T09:30:22;2.50;;;2.00;;
3779;SDS011;1905;52.482;9.802;2023-03-23T09:32:50;1.67;;;1.57;;
3779;SDS011;1905;52.482;9.802;2023-03-23T09:35:16;2.97;;;2.20;;
3779;SDS011;1905;52.482;9.802;2023-03-23T09:37:46;3.80;;;2.20;;
3779;SDS011;1905;52.482;9.802;2023-03-23T09:40:17;5.30;;;2.03;;
3779;SDS011;1905;52.482;9.802;2023-03-23T09:42:52;4.10;;;1.97;;
3779;SDS011;1905;52.482;9.802;2023-03-23T09:45:29;2.03;;;1.80;;
3779;SDS011;1905;52.482;9.802;2023-03-23T09:51:06;7.13;;;2.47;;
3779;SDS011;1905;52.482;9.802;2023-03-23T09:53:38;2.73;;;2.20;;
3779;SDS011;1905;52.482;9.802;2023-03-23T09:56:10;3.30;;;2.10;;
3779;SDS011;1905;52.482;9.802;2023-03-23T09:58:45;4.63;;;2.70;;
3779;SDS011;1905;52.482;9.802;2023-03-23T10:01:17;2.93;;;2.33;;
3779;SDS011;1905;52.482;9.802;2023-03-23T10:03:48;2.17;;;1.87;;
3779;SDS011;1905;52.482;9.802;2023-03-23T10:06:18;3.30;;;1.70;;
3779;SDS011;1905;52.482;9.802;2023-03-23T10:08:47;2.30;;;2.07;;
3779;SDS011;1905;52.482;9.802;2023-03-23T10:11:20;6.13;;;1.90;;
3779;SDS011;1905;52.482;9.802;2023-03-23T10:13:59;4.57;;;2.03;;
3779;SDS011;1905;52.482;9.802;2023-03-23T10:16:37;4.87;;;2.70;;
3779;SDS011;1905;52.482;9.802;2023-03-23T10:19:09;3.27;;;2.73;;
3779;SDS011;1905;52.482;9.802;2023-03-23T10:21:39;2.40;;;2.10;;
3779;SDS011;1905;52.482;9.802;2023-03-23T10:24:09;3.10;;;2.37;;
3779;SDS011;1905;52.482;9.802;2023-03-23T10:26:41;4.10;;;2.20;;
3779;SDS011;1905;52.482;9.802;2023-03-23T10:29:16;3.33;;;2.50;;
3779;SDS011;1905;52.482;9.802;2023-03-23T10:31:47;4.20;;;2.07;;
3779;SDS011;1905;52.482;9.802;2023-03-23T10:34:17;9.50;;;2.17;;
3779;SDS011;1905;52.482;9.802;2023-03-23T10:36:55;2.53;;;2.43;;
3779;SDS011;1905;52.482;9.802;2023-03-23T10:39:29;2.40;;;2.10;;
3779;SDS011;1905;52.482;9.802;2023-03-23T10:42:00;2.83;;;2.33;;
3779;SDS011;1905;52.482;9.802;2023-03-23T10:44:32;4.07;;;2.30;;
3779;SDS011;1905;52.482;9.802;2023-03-23T10:47:00;4.53;;;2.43;;
3779;SDS011;1905;52.482;9.802;2023-03-23T10:49:29;4.13;;;1.93;;
3779;SDS011;1905;52.482;9.802;2023-03-23T10:52:01;4.33;;;1.90;;
3779;SDS011;1905;52.482;9.802;2023-03-23T10:54:33;2.40;;;2.20;;
3779;SDS011;1905;52.482;9.802;2023-03-23T10:57:13;3.83;;;2.20;;
3779;SDS011;1905;52.482;9.802;2023-03-23T10:59:48;8.07;;;2.60;;
3779;SDS011;1905;52.482;9.802;2023-03-23T11:02:16;2.83;;;2.63;;
3779;SDS011;1905;52.482;9.802;2023-03-23T11:04:45;5.77;;;2.10;;
3779;SDS011;1905;52.482;9.802;2023-03-23T11:07:17;5.93;;;2.50;;
3779;SDS011;1905;52.482;9.802;2023-03-23T11:09:53;4.50;;;2.57;;
3779;SDS011;1905;52.482;9.802;2023-03-23T11:12:23;2.77;;;2.40;;
3779;SDS011;1905;52.482;9.802;2023-03-23T11:14:49;2.30;;;1.90;;
3779;SDS011;1905;52.482;9.802;2023-03-23T11:17:20;3.40;;;2.63;;
3779;SDS011;1905;52.482;9.802;2023-03-23T11:19:48;6.80;;;3.03;;
3779;SDS011;1905;52.482;9.802;2023-03-23T11:22:16;8.80;;;3.50;;
3779;SDS011;1905;52.482;9.802;2023-03-23T11:24:50;3.70;;;2.50;;
3779;SDS011;1905;52.482;9.802;2023-03-23T11:27:19;2.27;;;2.07;;
3779;SDS011;1905;52.482;9.802;2023-03-23T11:29:50;5.17;;;3.77;;
3779;SDS011;1905;52.482;9.802;2023-03-23T11:32:21;6.50;;;2.43;;
3779;SDS011;1905;52.482;9.802;2023-03-23T11:34:53;2.53;;;2.33;;
3779;SDS011;1905;52.482;9.802;2023-03-23T11:37:23;3.20;;;2.90;;
3779;SDS011;1905;52.482;9.802;2023-03-23T11:39:54;3.23;;;2.97;;
3779;SDS011;1905;52.482;9.802;2023-03-23T11:42:24;2.50;;;2.30;;
3779;SDS011;1905;52.482;9.802;2023-03-23T11:44:54;5.40;;;2.93;;
3779;SDS011;1905;52.482;9.802;2023-03-23T11:47:41;3.60;;;2.60;;
3779;SDS011;1905;52.482;9.802;2023-03-23T11:50:14;7.60;;;2.43;;
3779;SDS011;1905;52.482;9.802;2023-03-23T11:52:48;6.33;;;3.33;;
3779;SDS011;1905;52.482;9.802;2023-03-23T11:55:21;4.83;;;3.33;;
3779;SDS011;1905;52.482;9.802;2023-03-23T11:57:53;11.53;;;3.10;;
3779;SDS011;1905;52.482;9.802;2023-03-23T12:00:23;3.53;;;2.03;;
3779;SDS011;1905;52.482;9.802;2023-03-23T12:02:51;2.80;;;2.60;;
3779;SDS011;1905;52.482;9.802;2023-03-23T12:05:38;3.47;;;2.00;;
3779;SDS011;1905;52.482;9.802;2023-03-23T12:08:17;7.47;;;2.43;;
3779;SDS011;1905;52.482;9.802;2023-03-23T12:10:55;3.77;;;2.43;;
3779;SDS011;1905;52.482;9.802;2023-03-23T12:13:42;3.37;;;2.63;;
3779;SDS011;1905;52.482;9.802;2023-03-23T12:16:25;2.77;;;1.77;;
3779;SDS011;1905;52.482;9.802;2023-03-23T12:19:01;2.70;;;2.50;;
3779;SDS011;1905;52.482;9.802;2023-03-23T12:21:35;4.00;;;2.13;;
3779;SDS011;1905;52.482;9.802;2023-03-23T12:24:13;5.47;;;1.90;;
3779;SDS011;1905;52.482;9.802;2023-03-23T12:26:50;2.83;;;1.87;;
3779;SDS011;1905;52.482;9.802;2023-03-23T12:29:29;2.70;;;2.30;;
3779;SDS011;1905;52.482;9.802;2023-03-23T12:32:19;2.13;;;1.63;;
3779;SDS011;1905;52.482;9.802;2023-03-23T12:34:57;1.40;;;1.30;;
3779;SDS011;1905;52.482;9.802;2023-03-23T12:37:35;1.20;;;1.10;;
3779;SDS011;1905;52.482;9.802;2023-03-23T12:40:20;5.00;;;1.50;;
3779;SDS011;1905;52.482;9.802;2023-03-23T12:42:59;1.60;;;1.50;;
3779;SDS011;1905;52.482;9.802;2023-03-23T12:45:48;2.40;;;1.77;;
3779;SDS011;1905;52.482;9.802;2023-03-23T12:59:03;2.23;;;1.53;;
3779;SDS011;1905;52.482;9.802;2023-03-23T13:01:38;3.37;;;1.67;;
3779;SDS011;1905;52.482;9.802;2023-03-23T13:04:10;2.77;;;1.50;;
3779;SDS011;1905;52.482;9.802;2023-03-23T13:06:40;1.60;;;1.27;;
3779;SDS011;1905;52.482;9.802;2023-03-23T13:09:10;2.40;;;1.43;;
3779;SDS011;1905;52.482;9.802;2023-03-23T13:11:42;5.47;;;2.00;;
3779;SDS011;1905;52.482;9.802;2023-03-23T13:17:03;1.50;;;1.40;;
3779;SDS011;1905;52.482;9.802;2023-03-23T13:19:53;2.13;;;1.50;;
3779;SDS011;1905;52.482;9.802;2023-03-23T13:22:33;4.80;;;2.20;;
3779;SDS011;1905;52.482;9.802;2023-03-23T13:25:06;2.80;;;1.20;;
3779;SDS011;1905;52.482;9.802;2023-03-23T13:27:38;1.10;;;1.00;;
3779;SDS011;1905;52.482;9.802;2023-03-23T13:30:16;1.20;;;1.10;;
3779;SDS011;1905;52.482;9.802;2023-03-23T13:32:48;1.23;;;1.00;;
3779;SDS011;1905;52.482;9.802;2023-03-23T13:35:16;2.27;;;1.10;;
3779;SDS011;1905;52.482;9.802;2023-03-23T13:37:46;2.70;;;1.10;;
3779;SDS011;1905;52.482;9.802;2023-03-23T13:40:18;1.40;;;1.10;;
3779;SDS011;1905;52.482;9.802;2023-03-23T13:42:53;1.57;;;1.20;;
3779;SDS011;1905;52.482;9.802;2023-03-23T13:45:22;1.37;;;0.90;;
3779;SDS011;1905;52.482;9.802;2023-03-23T13:48:04;0.80;;;0.80;;
3779;SDS011;1905;52.482;9.802;2023-03-23T13:50:44;0.90;;;0.90;;
3779;SDS011;1905;52.482;9.802;2023-03-23T13:53:22;1.00;;;0.80;;
3779;SDS011;1905;52.482;9.802;2023-03-23T13:55:51;4.03;;;0.90;;
3779;SDS011;1905;52.482;9.802;2023-03-23T13:58:31;0.90;;;0.90;;
3779;SDS011;1905;52.482;9.802;2023-03-23T14:01:12;1.27;;;0.70;;
3779;SDS011;1905;52.482;9.802;2023-03-23T14:03:42;1.00;;;0.90;;
3779;SDS011;1905;52.482;9.802;2023-03-23T14:06:15;1.00;;;0.90;;
3779;SDS011;1905;52.482;9.802;2023-03-23T14:09:05;1.67;;;0.93;;
3779;SDS011;1905;52.482;9.802;2023-03-23T14:11:44;0.80;;;0.80;;
3779;SDS011;1905;52.482;9.802;2023-03-23T14:14:21;0.70;;;0.63;;
3779;SDS011;1905;52.482;9.802;2023-03-23T14:17:04;0.80;;;0.80;;
3779;SDS011;1905;52.482;9.802;2023-03-23T14:19:32;1.47;;;0.70;;
3779;SDS011;1905;52.482;9.802;2023-03-23T14:22:00;0.80;;;0.80;;
3779;SDS011;1905;52.482;9.802;2023-03-23T14:24:28;1.23;;;0.80;;
3779;SDS011;1905;52.482;9.802;2023-03-23T14:27:01;0.83;;;0.83;;
3779;SDS011;1905;52.482;9.802;2023-03-23T14:29:29;1.90;;;0.93;;
3779;SDS011;1905;52.482;9.802;2023-03-23T14:31:57;2.20;;;0.90;;
3779;SDS011;1905;52.482;9.802;2023-03-23T14:34:26;0.90;;;0.90;;
3779;SDS011;1905;52.482;9.802;2023-03-23T14:36:57;1.00;;;0.90;;
3779;SDS011;1905;52.482;9.802;2023-03-23T14:39:26;0.80;;;0.80;;
3779;SDS011;1905;52.482;9.802;2023-03-23T14:41:54;0.93;;;0.90;;
3779;SDS011;1905;52.482;9.802;2023-03-23T14:44:24;0.80;;;0.80;;
3779;SDS011;1905;52.482;9.802;2023-03-23T14:46:53;0.87;;;0.87;;
3779;SDS011;1905;52.482;9.802;2023-03-23T14:49:25;1.23;;;0.97;;
3779;SDS011;1905;52.482;9.802;2023-03-23T14:51:56;1.83;;;0.80;;
3779;SDS011;1905;52.482;9.802;2023-03-23T14:54:24;0.80;;;0.80;;
3779;SDS011;1905;52.482;9.802;2023-03-23T14:56:52;1.07;;;1.00;;
3779;SDS011;1905;52.482;9.802;2023-03-23T14:59:19;2.00;;;1.10;;
3779;SDS011;1905;52.482;9.802;2023-03-23T15:01:46;1.10;;;0.90;;
3779;SDS011;1905;52.482;9.802;2023-03-23T15:04:16;2.53;;;1.27;;
3779;SDS011;1905;52.482;9.802;2023-03-23T15:06:47;2.27;;;1.10;;
3779;SDS011;1905;52.482;9.802;2023-03-23T15:09:17;1.20;;;1.10;;
3779;SDS011;1905;52.482;9.802;2023-03-23T15:11:51;1.07;;;0.97;;
3779;SDS011;1905;52.482;9.802;2023-03-23T15:14:21;1.33;;;1.23;;
3779;SDS011;1905;52.482;9.802;2023-03-23T15:16:50;1.30;;;1.20;;
3779;SDS011;1905;52.482;9.802;2023-03-23T15:19:19;2.70;;;1.70;;
3779;SDS011;1905;52.482;9.802;2023-03-23T15:21:51;2.13;;;1.50;;
3779;SDS011;1905;52.482;9.802;2023-03-23T15:24:31;0.83;;;0.83;;
3779;SDS011;1905;52.482;9.802;2023-03-23T15:27:03;0.87;;;0.87;;
3779;SDS011;1905;52.482;9.802;2023-03-23T15:29:45;3.23;;;1.40;;
3779;SDS011;1905;52.482;9.802;2023-03-23T15:32:13;1.90;;;1.30;;
3779;SDS011;1905;52.482;9.802;2023-03-23T15:34:45;3.97;;;1.47;;
3779;SDS011;1905;52.482;9.802;2023-03-23T15:37:18;4.80;;;1.10;;
3779;SDS011;1905;52.482;9.802;2023-03-23T15:39:47;1.33;;;1.13;;
3779;SDS011;1905;52.482;9.802;2023-03-23T15:42:21;1.30;;;1.20;;
3779;SDS011;1905;52.482;9.802;2023-03-23T15:44:57;1.27;;;1.17;;
3779;SDS011;1905;52.482;9.802;2023-03-23T15:47:36;2.10;;;1.10;;
3779;SDS011;1905;52.482;9.802;2023-03-23T15:50:08;1.67;;;1.30;;
3779;SDS011;1905;52.482;9.802;2023-03-23T15:52:38;1.20;;;1.10;;
3779;SDS011;1905;52.482;9.802;2023-03-23T15:55:16;1.67;;;1.57;;
3779;SDS011;1905;52.482;9.802;2023-03-23T15:57:46;1.97;;;1.47;;
3779;SDS011;1905;52.482;9.802;2023-03-23T16:00:14;2.73;;;1.43;;
3779;SDS011;1905;52.482;9.802;2023-03-23T16:02:42;1.27;;;1.17;;
3779;SDS011;1905;52.482;9.802;2023-03-23T16:05:12;3.10;;;1.53;;
3779;SDS011;1905;52.482;9.802;2023-03-23T16:07:42;2.33;;;1.60;;
3779;SDS011;1905;52.482;9.802;2023-03-23T16:10:13;1.37;;;1.27;;
3779;SDS011;1905;52.482;9.802;2023-03-23T16:12:43;1.50;;;1.40;;